createdAt,value
2023-03-28T00:01:15.053Z,87.79
2023-03-28T00:03:43.897Z,87.83
2023-03-28T00:06:17.461Z,88.22
2023-03-28T00:08:48.332Z,88.32
2023-03-28T00:11:20.733Z,88.25
2023-03-28T00:14:04.458Z,88.08
2023-03-28T00:16:36.206Z,88.41
2023-03-28T00:19:08.359Z,88.46
2023-03-28T00:21:41.057Z,88.35
2023-03-28T00:24:15.918Z,88.45
2023-03-28T00:26:46.467Z,88.76
2023-03-28T00:29:17.579Z,88.79
2023-03-28T00:31:46.774Z,89.33
2023-03-28T00:34:15.589Z,89.36
2023-03-28T00:36:44.513Z,89.48
2023-03-28T00:39:14.399Z,89.37
2023-03-28T00:41:45.537Z,89.64
2023-03-28T00:44:42.787Z,89.28
2023-03-28T00:47:14.428Z,89.31
2023-03-28T00:49:47.864Z,89.38
2023-03-28T00:52:19.535Z,89.88
2023-03-28T00:54:49.251Z,90.06
2023-03-28T00:57:19.860Z,90.29
2023-03-28T00:59:48.780Z,90.26
2023-03-28T01:02:17.835Z,90.46
2023-03-28T01:04:56.114Z,90.70
2023-03-28T01:07:31.014Z,90.70
2023-03-28T01:10:00.579Z,90.59
2023-03-28T01:12:29.470Z,90.45
2023-03-28T01:14:59.223Z,90.51
2023-03-28T01:17:37.981Z,90.77
2023-03-28T01:20:15.616Z,90.14
2023-03-28T01:23:21.807Z,90.32
2023-03-28T01:26:12.940Z,88.77
2023-03-28T01:29:00.512Z,87.84
2023-03-28T01:32:08.049Z,87.25
2023-03-28T01:35:23.922Z,86.95
2023-03-28T01:38:46.868Z,85.93
2023-03-28T01:41:28.599Z,84.38
2023-03-28T01:44:36.191Z,83.59
2023-03-28T01:47:42.725Z,81.79
2023-03-28T01:50:14.504Z,80.78
2023-03-28T01:53:07.216Z,80.69
2023-03-28T01:56:10.768Z,78.89
2023-03-28T01:59:13.163Z,78.07
2023-03-28T02:02:19.314Z,77.41
2023-03-28T02:04:49.928Z,76.46
2023-03-28T02:07:25.669Z,76.55
2023-03-28T02:10:26.334Z,76.54
2023-03-28T02:13:09.028Z,75.74
2023-03-28T02:16:04.230Z,75.36
2023-03-28T02:18:58.701Z,74.89
2023-03-28T02:21:59.688Z,73.61
2023-03-28T02:24:35.119Z,73.35
2023-03-28T02:27:14.638Z,72.22
2023-03-28T02:29:55.878Z,72.15
2023-03-28T02:32:36.784Z,72.40
2023-03-28T02:35:08.150Z,71.42
2023-03-28T02:37:58.128Z,71.39
2023-03-28T02:40:32.985Z,70.87
2023-03-28T02:43:38.581Z,70.33
2023-03-28T02:46:25.610Z,69.79
2023-03-28T02:49:18.892Z,70.43
2023-03-28T02:51:59.496Z,69.13
2023-03-28T02:54:37.877Z,68.87
2023-03-28T02:57:40.116Z,68.08
2023-03-28T03:00:17.476Z,68.07
2023-03-28T03:02:51.482Z,67.87
2023-03-28T03:05:22.449Z,67.85
2023-03-28T03:07:52.591Z,68.19
2023-03-28T03:10:22.929Z,67.15
2023-03-28T03:12:52.785Z,66.82
2023-03-28T03:15:21.850Z,65.38
2023-03-28T03:17:55.024Z,66.15
2023-03-28T03:20:34.237Z,66.84
2023-03-28T03:23:05.066Z,67.41
2023-03-28T03:25:36.867Z,66.85
2023-03-28T03:28:21.338Z,66.43
2023-03-28T03:30:54.282Z,66.33
2023-03-28T03:33:43.182Z,66.85
2023-03-28T03:36:14.285Z,64.07
2023-03-28T03:38:43.377Z,64.03
2023-03-28T03:41:17.345Z,64.54
2023-03-28T03:43:47.334Z,63.89
2023-03-28T03:46:16.455Z,63.20
2023-03-28T03:48:49.370Z,64.55
2023-03-28T03:51:20.038Z,64.81
2023-03-28T03:53:52.646Z,64.75
2023-03-28T03:56:27.005Z,64.39
2023-03-28T03:59:00.805Z,63.03
2023-03-28T04:01:33.092Z,62.20
2023-03-28T04:04:28.995Z,61.30
2023-03-28T04:07:21.388Z,59.71
2023-03-28T04:09:53.343Z,58.60
2023-03-28T04:12:22.792Z,58.75
2023-03-28T04:14:53.392Z,59.36
2023-03-28T04:17:45.301Z,59.30
2023-03-28T04:20:18.967Z,59.54
2023-03-28T04:23:02.231Z,60.42
2023-03-28T04:25:33.091Z,60.76
2023-03-28T04:28:06.776Z,59.21
2023-03-28T04:30:39.802Z,58.38
2023-03-28T04:33:28.439Z,57.92
2023-03-28T04:36:03.864Z,57.88
2023-03-28T04:38:38.240Z,58.60
2023-03-28T04:41:23.711Z,57.61
2023-03-28T04:44:04.238Z,56.63
2023-03-28T04:46:39.785Z,56.90
2023-03-28T04:49:15.091Z,57.53
2023-03-28T04:51:44.212Z,56.98
2023-03-28T04:54:13.103Z,56.50
2023-03-28T04:57:03.384Z,56.67
2023-03-28T04:59:43.523Z,54.28
2023-03-28T05:02:18.470Z,55.00
2023-03-28T05:05:01.439Z,53.71
2023-03-28T05:07:30.560Z,53.51
2023-03-28T05:09:59.327Z,53.47
2023-03-28T05:12:35.404Z,51.68
2023-03-28T05:15:07.373Z,52.33
2023-03-28T05:17:48.860Z,51.09
2023-03-28T05:20:28.882Z,50.14
2023-03-28T05:22:59.418Z,50.08
2023-03-28T05:25:29.844Z,50.80
2023-03-28T05:27:58.787Z,50.71
2023-03-28T05:30:27.775Z,48.98
2023-03-28T05:32:59.299Z,49.85
2023-03-28T05:35:29.504Z,49.72
2023-03-28T05:37:59.168Z,50.18
2023-03-28T05:40:28.626Z,49.89
2023-03-28T05:42:57.383Z,49.12
2023-03-28T05:45:26.559Z,49.23
2023-03-28T05:48:08.400Z,49.13
2023-03-28T05:50:38.336Z,49.43
2023-03-28T05:53:07.758Z,49.48
2023-03-28T05:55:36.726Z,47.31
2023-03-28T05:58:07.272Z,47.48
2023-03-28T06:00:43.785Z,45.52
2023-03-28T06:03:16.788Z,46.03
2023-03-28T06:05:48.439Z,48.95
2023-03-28T06:08:21.520Z,49.55
2023-03-28T06:10:50.700Z,48.42
2023-03-28T06:13:23.378Z,48.86
2023-03-28T06:15:53.102Z,48.05
2023-03-28T06:18:30.525Z,48.26
2023-03-28T06:20:59.880Z,46.89
2023-03-28T06:23:28.763Z,45.86
2023-03-28T06:25:58.365Z,45.50
2023-03-28T06:28:33.759Z,46.08
2023-03-28T06:31:15.999Z,44.70
2023-03-28T06:33:46.096Z,44.46
2023-03-28T06:36:15.147Z,44.78
2023-03-28T06:38:44.323Z,44.99
2023-03-28T06:41:14.180Z,45.26
2023-03-28T06:43:43.265Z,45.67
2023-03-28T06:46:32.182Z,44.49
2023-03-28T06:49:01.902Z,45.12
2023-03-28T06:51:49.053Z,45.62
2023-03-28T06:54:18.100Z,46.06
2023-03-28T06:56:47.140Z,45.86
2023-03-28T06:59:16.298Z,44.79
2023-03-28T07:01:47.688Z,44.43
2023-03-28T07:04:19.337Z,44.32
2023-03-28T07:06:48.860Z,43.28
2023-03-28T07:09:17.696Z,44.06
2023-03-28T07:11:56.257Z,45.40
2023-03-28T07:14:25.578Z,45.72
2023-03-28T07:16:54.518Z,45.81
2023-03-28T07:19:23.892Z,44.90
2023-03-28T07:21:54.330Z,45.75
2023-03-28T07:24:25.118Z,45.05
2023-03-28T07:27:45.764Z,45.27
2023-03-28T07:30:17.018Z,45.21
2023-03-28T07:32:55.725Z,45.15
2023-03-28T07:35:31.118Z,45.79
2023-03-28T07:42:03.597Z,45.04
2023-03-28T07:44:32.596Z,44.87
2023-03-28T07:47:02.765Z,45.04
2023-03-28T07:49:32.034Z,45.37
2023-03-28T07:52:01.974Z,44.63
2023-03-28T07:54:34.129Z,44.01
2023-03-28T07:57:03.115Z,44.72
2023-03-28T07:59:52.551Z,43.76
2023-03-28T08:02:21.781Z,45.55
2023-03-28T08:04:51.063Z,45.60
2023-03-28T08:07:26.605Z,46.40
2023-03-28T08:09:58.400Z,45.15
2023-03-28T08:12:31.299Z,45.27
2023-03-28T08:15:00.911Z,45.07
2023-03-28T08:17:31.840Z,43.19
2023-03-28T08:20:01.123Z,43.28
2023-03-28T08:22:29.887Z,42.87
2023-03-28T08:25:18.926Z,42.34
2023-03-28T08:27:48.864Z,43.91
2023-03-28T08:30:17.956Z,42.72
2023-03-28T08:32:55.281Z,42.90
2023-03-28T08:35:24.533Z,43.38
2023-03-28T08:37:56.863Z,41.90
2023-03-28T08:40:29.209Z,42.59
2023-03-28T08:43:24.212Z,40.67
2023-03-28T08:45:57.024Z,40.37
2023-03-28T08:48:41.586Z,40.26
2023-03-28T08:51:27.129Z,41.56
2023-03-28T08:54:22.825Z,40.81
2023-03-28T08:57:01.633Z,40.58
2023-03-28T08:59:34.677Z,39.86
2023-03-28T09:02:04.995Z,41.58
2023-03-28T09:04:36.681Z,40.86
2023-03-28T09:07:32.305Z,43.53
2023-03-28T09:10:14.925Z,43.43
2023-03-28T09:12:59.302Z,43.61
2023-03-28T09:15:46.792Z,43.98
2023-03-28T09:18:39.895Z,42.83
2023-03-28T09:21:32.327Z,43.28
2023-03-28T09:24:05.162Z,42.08
2023-03-28T09:27:35.557Z,42.93
2023-03-28T09:30:20.697Z,43.02
2023-03-28T09:32:54.270Z,43.14
2023-03-28T09:35:25.507Z,42.96
2023-03-28T09:38:01.786Z,43.23
2023-03-28T09:40:36.727Z,42.08
2023-03-28T09:43:37.942Z,42.88
2023-03-28T09:46:44.372Z,42.02
2023-03-28T09:49:50.755Z,43.26
2023-03-28T09:52:25.164Z,43.27
2023-03-28T09:54:54.779Z,43.08
2023-03-28T09:57:24.620Z,43.14
2023-03-28T09:59:59.766Z,42.09
2023-03-28T10:02:42.700Z,40.97
2023-03-28T10:05:32.903Z,40.84
2023-03-28T10:08:26.403Z,42.48
2023-03-28T10:11:18.354Z,40.53
2023-03-28T10:13:52.290Z,40.69
2023-03-28T10:16:31.856Z,41.34
2023-03-28T10:19:15.171Z,42.23
2023-03-28T10:21:57.393Z,43.09
2023-03-28T10:24:30.790Z,42.04
2023-03-28T10:27:26.730Z,42.85
2023-03-28T10:30:09.880Z,42.08
2023-03-28T10:32:39.842Z,41.73
2023-03-28T10:35:27.134Z,40.85
2023-03-28T10:38:06.008Z,42.04
2023-03-28T10:41:10.806Z,39.97
2023-03-28T10:43:59.693Z,39.47
2023-03-28T10:46:44.819Z,40.86
2023-03-28T10:49:21.883Z,42.11
2023-03-28T10:51:59.046Z,41.74
2023-03-28T10:54:41.113Z,42.01
2023-03-28T10:57:59.863Z,41.31
2023-03-28T11:00:43.500Z,41.98
2023-03-28T11:03:49.198Z,41.71
2023-03-28T11:06:35.901Z,41.76
2023-03-28T11:09:26.992Z,41.54
2023-03-28T11:12:54.315Z,41.68
2023-03-28T11:15:47.851Z,42.60
2023-03-28T11:18:50.183Z,42.34
2023-03-28T11:21:50.513Z,42.24
2023-03-28T11:24:42.806Z,43.16
2023-03-28T11:27:36.760Z,42.24
2023-03-28T11:30:21.433Z,42.70
2023-03-28T11:33:38.105Z,42.03
2023-03-28T11:36:23.082Z,42.88
2023-03-28T11:39:14.896Z,42.85
2023-03-28T11:41:47.705Z,44.17
2023-03-28T11:44:57.191Z,44.32
2023-03-28T11:47:36.015Z,44.24
2023-03-28T11:50:22.830Z,43.66
2023-03-28T11:53:13.840Z,44.17
2023-03-28T11:56:15.506Z,42.84
2023-03-28T11:59:58.577Z,43.83
2023-03-28T12:02:32.107Z,44.39
2023-03-28T12:05:20.997Z,43.93
2023-03-28T12:08:08.224Z,44.71
2023-03-28T12:10:41.033Z,44.24
2023-03-28T12:13:45.478Z,46.17
2023-03-28T12:16:50.286Z,46.11
2023-03-28T12:19:41.960Z,46.35
2023-03-28T12:22:33.423Z,47.32
2023-03-28T12:25:30.257Z,46.34
2023-03-28T12:28:46.700Z,47.12
2023-03-28T12:31:32.872Z,46.61
2023-03-28T12:34:40.318Z,46.94
2023-03-28T12:37:49.455Z,47.31
2023-03-28T12:41:01.131Z,47.41
2023-03-28T12:43:52.858Z,46.58
2023-03-28T12:46:38.008Z,47.24
2023-03-28T12:49:15.805Z,47.70
2023-03-28T12:51:51.376Z,48.44
2023-03-28T12:54:29.341Z,48.92
2023-03-28T12:57:09.335Z,49.25
2023-03-28T13:00:14.447Z,49.67
2023-03-28T13:03:09.213Z,50.74
2023-03-28T13:06:04.122Z,51.16
2023-03-28T13:09:09.405Z,51.59
2023-03-28T13:11:50.776Z,52.27
2023-03-28T13:14:42.571Z,52.66
2023-03-28T13:17:40.214Z,53.03
2023-03-28T13:20:18.592Z,53.21
2023-03-28T13:22:59.059Z,54.32
2023-03-28T13:25:33.808Z,54.52
2023-03-28T13:28:32.234Z,54.65
2023-03-28T13:31:21.892Z,55.32
2023-03-28T13:33:59.294Z,55.38
2023-03-28T13:36:37.442Z,55.12
2023-03-28T13:39:10.296Z,55.83
2023-03-28T13:41:48.522Z,55.81
2023-03-28T13:44:46.132Z,55.92
2023-03-28T13:47:24.236Z,56.19
2023-03-28T13:50:01.084Z,56.24
2023-03-28T13:52:30.304Z,56.38
2023-03-28T13:55:03.701Z,56.28
2023-03-28T13:57:32.991Z,57.07
2023-03-28T14:00:06.868Z,57.38
2023-03-28T14:02:49.078Z,57.57
2023-03-28T14:05:28.758Z,57.50
2023-03-28T14:08:20.989Z,57.06
2023-03-28T14:10:52.411Z,58.27
2023-03-28T14:13:26.212Z,58.45
2023-03-28T14:15:56.865Z,58.51
2023-03-28T14:18:41.161Z,59.25
2023-03-28T14:21:11.134Z,59.63
2023-03-28T14:23:43.345Z,59.83
2023-03-28T14:26:19.648Z,60.08
2023-03-28T14:28:48.921Z,59.82
2023-03-28T14:31:38.515Z,59.54
2023-03-28T14:34:27.240Z,59.40
2023-03-28T14:37:01.833Z,60.46
2023-03-28T14:39:33.413Z,61.01
2023-03-28T14:42:09.337Z,61.81
2023-03-28T14:44:43.632Z,61.01
2023-03-28T14:47:30.919Z,61.32
2023-03-28T14:50:02.544Z,61.81
2023-03-28T14:52:41.830Z,62.02
2023-03-28T14:55:18.607Z,62.52
2023-03-28T14:57:55.806Z,62.41
2023-03-28T15:00:34.417Z,62.75
2023-03-28T15:03:06.556Z,63.04
2023-03-28T15:05:37.526Z,62.98
2023-03-28T15:08:07.431Z,62.93
2023-03-28T15:10:37.374Z,63.26
2023-03-28T15:13:35.936Z,62.89
2023-03-28T15:16:09.667Z,62.98
2023-03-28T15:18:47.863Z,63.29
2023-03-28T15:21:17.996Z,63.44
2023-03-28T15:24:16.518Z,63.43
2023-03-28T15:26:52.113Z,63.58
2023-03-28T15:29:23.137Z,63.25
2023-03-28T15:31:57.563Z,63.08
2023-03-28T15:34:30.656Z,63.44
2023-03-28T15:37:06.042Z,63.76
2023-03-28T15:39:38.496Z,64.81
2023-03-28T15:42:23.649Z,64.07
2023-03-28T15:44:58.465Z,64.16
2023-03-28T15:47:31.009Z,64.43
2023-03-28T15:50:08.039Z,64.36
2023-03-28T15:52:37.546Z,64.44
2023-03-28T15:55:07.489Z,63.99
2023-03-28T15:57:37.420Z,64.43
2023-03-28T16:00:07.880Z,64.54
2023-03-28T16:02:41.815Z,64.78
2023-03-28T16:05:17.244Z,64.97
2023-03-28T16:07:49.470Z,65.38
2023-03-28T16:10:22.754Z,65.88
2023-03-28T16:13:24.394Z,66.52
2023-03-28T16:16:25.187Z,65.54
2023-03-28T16:19:26.909Z,65.44
2023-03-28T16:21:57.895Z,65.21
2023-03-28T16:24:28.245Z,65.67
2023-03-28T16:26:57.224Z,65.86
2023-03-28T16:29:26.498Z,66.81
2023-03-28T16:31:55.535Z,66.97
2023-03-28T16:34:24.497Z,66.26
2023-03-28T16:36:53.361Z,66.75
2023-03-28T16:39:22.422Z,66.74
2023-03-28T16:41:51.571Z,67.14
2023-03-28T16:44:20.706Z,67.05
2023-03-28T16:46:51.978Z,67.24
2023-03-28T16:49:20.942Z,67.16
2023-03-28T16:51:49.788Z,67.63
2023-03-28T16:54:19.201Z,68.12
2023-03-28T16:56:48.614Z,68.84
2023-03-28T16:59:18.034Z,68.90
2023-03-28T17:01:48.772Z,68.90
2023-03-28T17:04:17.871Z,69.08
2023-03-28T17:06:46.800Z,68.68
2023-03-28T17:09:15.826Z,68.61
2023-03-28T17:11:44.715Z,68.92
2023-03-28T17:14:13.790Z,69.17
2023-03-28T17:16:42.961Z,69.40
2023-03-28T17:19:12.010Z,69.54
2023-03-28T17:21:43.105Z,70.46
2023-03-28T17:24:12.696Z,70.56
2023-03-28T17:26:41.512Z,70.36
2023-03-28T17:29:12.883Z,70.81
2023-03-28T17:31:42.096Z,70.83
2023-03-28T17:34:12.142Z,70.56
2023-03-28T17:36:42.495Z,70.60
2023-03-28T17:39:12.656Z,70.47
2023-03-28T17:41:42.730Z,70.29
2023-03-28T17:44:12.000Z,69.51
2023-03-28T17:46:41.248Z,69.59
2023-03-28T17:49:10.358Z,69.56
2023-03-28T17:51:40.222Z,68.90
2023-03-28T17:54:12.841Z,69.63
2023-03-28T17:56:42.567Z,69.76
2023-03-28T17:59:12.837Z,70.08
2023-03-28T18:01:42.064Z,69.93
2023-03-28T18:04:10.947Z,70.04
2023-03-28T18:06:41.533Z,69.94
2023-03-28T18:09:10.808Z,70.69
2023-03-28T18:11:40.233Z,70.69
2023-03-28T18:14:09.712Z,70.63
2023-03-28T18:16:39.755Z,70.91
2023-03-28T18:19:13.371Z,70.94
2023-03-28T18:21:42.621Z,71.35
2023-03-28T18:24:11.479Z,71.74
2023-03-28T18:26:40.602Z,72.11
2023-03-28T18:29:09.672Z,72.01
2023-03-28T18:31:39.895Z,71.88
2023-03-28T18:34:09.095Z,72.24
2023-03-28T18:36:44.793Z,72.75
2023-03-28T18:39:14.534Z,73.44
2023-03-28T18:41:43.313Z,73.76
2023-03-28T18:44:12.415Z,73.42
2023-03-28T18:46:41.222Z,73.50
2023-03-28T18:49:10.184Z,73.58
2023-03-28T18:51:39.373Z,73.62
2023-03-28T18:54:08.418Z,73.42
2023-03-28T18:56:37.226Z,73.56
2023-03-28T18:59:06.978Z,73.87
2023-03-28T19:01:36.721Z,73.66
2023-03-28T19:04:05.722Z,73.78
2023-03-28T19:06:37.675Z,73.68
2023-03-28T19:09:07.214Z,73.92
2023-03-28T19:11:36.295Z,73.91
2023-03-28T19:14:05.612Z,73.67
2023-03-28T19:16:34.478Z,73.23
2023-03-28T19:19:03.604Z,73.52
2023-03-28T19:21:32.508Z,73.78
2023-03-28T19:24:01.858Z,74.16
2023-03-28T19:26:30.865Z,74.19
2023-03-28T19:29:02.745Z,74.65
2023-03-28T19:31:32.231Z,74.58
2023-03-28T19:34:01.206Z,74.79
2023-03-28T19:36:30.355Z,74.88
2023-03-28T19:38:59.168Z,75.29
2023-03-28T19:41:28.339Z,75.24
2023-03-28T19:43:57.284Z,75.19
2023-03-28T19:46:48.958Z,74.92
2023-03-28T19:49:18.328Z,74.55
2023-03-28T19:51:47.070Z,74.54
2023-03-28T19:54:16.155Z,74.97
2023-03-28T19:56:45.926Z,75.20
2023-03-28T19:59:15.189Z,75.09
2023-03-28T20:01:44.381Z,75.54
2023-03-28T20:04:13.984Z,75.56
2023-03-28T20:06:43.198Z,75.99
2023-03-28T20:09:12.554Z,75.90
2023-03-28T20:11:43.100Z,76.29
2023-03-28T20:14:12.602Z,76.14
2023-03-28T20:16:41.856Z,76.14
2023-03-28T20:19:11.919Z,76.49
2023-03-28T20:21:42.049Z,76.44
2023-03-28T20:24:12.680Z,76.76
2023-03-28T20:26:42.836Z,76.80
2023-03-28T20:29:15.326Z,77.16
2023-03-28T20:31:45.595Z,77.32
2023-03-28T20:34:15.876Z,77.93
2023-03-28T20:36:47.845Z,77.96
2023-03-28T20:39:18.363Z,77.66
2023-03-28T20:41:50.135Z,77.55
2023-03-28T20:44:21.652Z,77.77
2023-03-28T20:46:51.886Z,77.40
2023-03-28T20:49:22.961Z,77.46
2023-03-28T20:51:53.731Z,77.69
2023-03-28T20:54:26.144Z,78.28
2023-03-28T20:56:57.197Z,78.28
2023-03-28T20:59:28.868Z,78.46
2023-03-28T21:01:59.358Z,78.80
2023-03-28T21:04:29.515Z,78.74
2023-03-28T21:06:59.407Z,78.18
2023-03-28T21:09:30.165Z,77.76
2023-03-28T21:12:00.170Z,79.01
2023-03-28T21:14:30.824Z,79.44
2023-03-28T21:17:01.287Z,79.45
2023-03-28T21:19:31.609Z,80.06
2023-03-28T21:22:02.426Z,79.55
2023-03-28T21:24:32.761Z,79.33
2023-03-28T21:27:03.076Z,79.14
2023-03-28T21:29:33.549Z,79.24
2023-03-28T21:32:03.802Z,79.35
2023-03-28T21:34:36.879Z,79.55
2023-03-28T21:37:07.589Z,79.80
2023-03-28T21:39:37.998Z,80.11
2023-03-28T21:42:08.909Z,80.40
2023-03-28T21:44:39.744Z,80.65
2023-03-28T21:47:09.622Z,80.59
2023-03-28T21:49:39.759Z,80.73
2023-03-28T21:52:09.693Z,80.86
2023-03-28T21:54:39.723Z,81.15
2023-03-28T21:57:10.110Z,81.26
2023-03-28T21:59:41.321Z,82.05
2023-03-28T22:02:11.810Z,82.74
2023-03-28T22:04:42.589Z,83.12
2023-03-28T22:07:12.951Z,83.43
2023-03-28T22:09:43.746Z,83.62
2023-03-28T22:12:16.346Z,83.42
2023-03-28T22:14:45.999Z,83.18
2023-03-28T22:17:15.953Z,83.45
2023-03-28T22:19:46.018Z,83.22
2023-03-28T22:22:19.223Z,83.75
2023-03-28T22:24:49.442Z,83.83
2023-03-28T22:27:19.253Z,83.63
2023-03-28T22:29:49.489Z,83.91
2023-03-28T22:32:19.473Z,84.25
2023-03-28T22:34:49.701Z,84.60
2023-03-28T22:37:20.432Z,84.48
2023-03-28T22:39:50.728Z,85.14
2023-03-28T22:42:20.954Z,84.90
2023-03-28T22:44:51.369Z,84.95
2023-03-28T22:47:21.462Z,84.79
2023-03-28T22:49:55.197Z,85.15
2023-03-28T22:52:27.485Z,85.14
2023-03-28T22:54:57.957Z,85.24
2023-03-28T22:57:28.491Z,85.40
2023-03-28T22:59:59.377Z,85.93
2023-03-28T23:02:30.432Z,85.65
2023-03-28T23:05:00.292Z,85.97
2023-03-28T23:07:30.476Z,85.69
2023-03-28T23:10:00.607Z,86.05
2023-03-28T23:12:30.957Z,85.97
2023-03-28T23:15:01.026Z,86.35
2023-03-28T23:17:30.192Z,86.49
2023-03-28T23:19:59.414Z,86.25
2023-03-28T23:22:28.432Z,86.51
2023-03-28T23:24:57.513Z,86.67
2023-03-28T23:27:26.443Z,86.39
2023-03-28T23:29:55.583Z,85.66
2023-03-28T23:32:24.455Z,85.28
2023-03-28T23:34:54.624Z,84.97
2023-03-28T23:37:27.062Z,85.05
2023-03-28T23:39:57.205Z,84.78
2023-03-28T23:42:26.575Z,85.05
2023-03-28T23:44:55.432Z,85.12
2023-03-28T23:47:24.756Z,85.56
2023-03-28T23:49:53.560Z,85.25
2023-03-28T23:52:22.918Z,84.99
2023-03-28T23:54:51.728Z,85.11
2023-03-28T23:57:20.897Z,85.35
2023-03-28T23:59:49.814Z,85.89
